Time;durP1;ratioP1;P1;durP2;ratioP2;P2;SDS_P1;SDS_P2;PMS_P1;PMS_P2;Temp;Humidity;BMP_temperature;BMP_pressure;BME280_temperature;BME280_humidity;BME280_pressure;Samples;Min_cycle;Max_cycle;Signal;HPM_P1;HPM_P2
2021/03/22 00:02:10;;;;;;;13.30;7.30;;;0.50;99.90;;;;;;5098294;28;20406;-80
2021/03/22 00:04:35;;;;;;;9.93;6.77;;;0.70;99.90;;;;;;5079755;28;20176;-80
2021/03/22 00:07:01;;;;;;;12.03;7.30;;;0.50;99.90;;;;;;5102025;28;20203;-80
2021/03/22 00:09:27;;;;;;;11.37;6.87;;;0.50;99.90;;;;;;5102094;28;20307;-79
2021/03/22 00:11:53;;;;;;;14.17;7.70;;;0.60;99.90;;;;;;5083977;28;20226;-80
2021/03/22 00:14:18;;;;;;;13.00;8.37;;;0.60;99.90;;;;;;5102848;28;20586;-80
2021/03/22 00:16:46;;;;;;;13.27;8.23;;;0.50;99.90;;;;;;5084296;28;20606;-79
2021/03/22 00:19:12;;;;;;;15.47;7.47;;;0.60;99.90;;;;;;5102475;28;20645;-80
2021/03/22 00:21:37;;;;;;;14.73;7.60;;;0.60;99.90;;;;;;5102385;28;20413;-80
2021/03/22 00:24:03;;;;;;;17.50;7.90;;;0.60;99.90;;;;;;5102519;28;20177;-79
2021/03/22 00:26:29;;;;;;;11.33;7.63;;;0.60;99.90;;;;;;5102256;28;20219;-80
2021/03/22 00:28:55;;;;;;;10.93;7.73;;;0.70;99.90;;;;;;5083217;28;20180;-80
2021/03/22 00:31:21;;;;;;;13.67;7.67;;;0.60;99.90;;;;;;5083411;28;20172;-79
2021/03/22 00:33:47;;;;;;;11.20;7.53;;;0.60;99.90;;;;;;5083576;28;20483;-79
2021/03/22 00:36:12;;;;;;;13.43;7.30;;;0.60;99.90;;;;;;5083855;28;20207;-79
2021/03/22 00:38:38;;;;;;;16.13;8.87;;;1.10;99.90;;;;;;5101094;28;20164;-79
2021/03/22 00:41:04;;;;;;;14.37;8.17;;;0.70;99.90;;;;;;5083366;28;20198;-80
2021/03/22 00:43:30;;;;;;;13.87;8.20;;;0.60;99.90;;;;;;5082298;28;20172;-79
2021/03/22 00:46:00;;;;;;;14.47;8.20;;;0.60;99.90;;;;;;5100183;28;20273;-80
2021/03/22 00:48:30;;;;;;;15.70;8.40;;;0.60;99.90;;;;;;5081923;28;20244;-80
2021/03/22 00:50:56;;;;;;;13.87;8.07;;;0.70;99.90;;;;;;5100411;28;20402;-79
2021/03/22 00:53:22;;;;;;;15.57;9.03;;;0.60;99.90;;;;;;5100412;28;20953;-80
2021/03/22 00:55:48;;;;;;;14.23;8.43;;;0.70;99.90;;;;;;5081638;28;20207;-79
2021/03/22 00:58:14;;;;;;;15.40;8.70;;;1.40;99.90;;;;;;5100219;28;20410;-80
2021/03/22 01:00:46;;;;;;;21.10;9.23;;;0.70;99.90;;;;;;5099508;28;20172;-80
2021/03/22 01:03:15;;;;;;;17.63;9.27;;;0.70;99.90;;;;;;5080538;28;20882;-79
2021/03/22 01:05:41;;;;;;;14.50;8.30;;;0.80;99.90;;;;;;5099027;28;20895;-80
2021/03/22 01:08:08;;;;;;;16.53;8.63;;;0.70;99.90;;;;;;5099201;28;20796;-80
2021/03/22 01:10:36;;;;;;;18.83;9.77;;;0.70;99.90;;;;;;5081178;28;20414;-79
2021/03/22 01:13:04;;;;;;;15.60;9.13;;;0.70;99.90;;;;;;5099438;28;20437;-80
2021/03/22 01:15:30;;;;;;;15.87;9.40;;;0.80;99.90;;;;;;5098740;28;20461;-80
2021/03/22 01:17:56;;;;;;;17.97;9.37;;;0.80;99.90;;;;;;5099093;28;20426;-80
2021/03/22 01:20:30;;;;;;;16.47;9.63;;;1.10;99.90;;;;;;5098382;28;20608;-79
2021/03/22 01:22:55;;;;;;;16.20;9.40;;;0.80;99.90;;;;;;5080676;28;20403;-80
2021/03/22 01:25:21;;;;;;;15.60;9.13;;;0.80;99.90;;;;;;5098749;28;20414;-80
2021/03/22 01:27:47;;;;;;;18.57;8.97;;;0.80;99.90;;;;;;5080113;28;20610;-80
2021/03/22 01:30:31;;;;;;;16.50;8.47;;;0.80;99.90;;;;;;5080108;28;20418;-80
2021/03/22 01:32:59;;;;;;;17.20;8.97;;;0.70;99.90;;;;;;5098204;28;20152;-79
2021/03/22 01:35:25;;;;;;;17.53;9.50;;;0.80;99.90;;;;;;5079970;28;20473;-79
2021/03/22 01:37:50;;;;;;;15.17;8.87;;;0.70;99.90;;;;;;5079302;28;20434;-79
2021/03/22 01:40:51;;;;;;;22.97;9.97;;;0.80;99.90;;;;;;5097757;28;20638;-80
2021/03/22 01:43:55;;;;;;;16.20;8.73;;;0.70;99.90;;;;;;5079645;28;20195;-80
2021/03/22 01:46:22;;;;;;;14.73;9.30;;;0.70;99.90;;;;;;5056829;28;20430;-79
2021/03/22 01:48:48;;;;;;;19.87;9.13;;;0.70;99.90;;;;;;5097601;28;20410;-79
2021/03/22 01:51:13;;;;;;;18.87;9.30;;;0.70;99.90;;;;;;5097298;28;20918;-79
2021/03/22 01:53:39;;;;;;;17.20;9.07;;;0.70;99.90;;;;;;5097283;28;20668;-79
2021/03/22 01:56:23;;;;;;;15.57;9.00;;;0.70;99.90;;;;;;5096761;28;20204;-79
2021/03/22 01:58:49;;;;;;;18.17;8.47;;;0.70;99.90;;;;;;5078614;28;20169;-79
2021/03/22 02:01:15;;;;;;;18.33;8.07;;;0.70;99.90;;;;;;5096798;28;20498;-79
2021/03/22 02:03:42;;;;;;;16.10;9.43;;;0.70;99.90;;;;;;5096341;28;20411;-79
2021/03/22 02:06:08;;;;;;;18.13;9.27;;;0.70;99.90;;;;;;5077832;28;20924;-79
2021/03/22 02:08:39;;;;;;;15.13;8.77;;;0.80;99.90;;;;;;5095591;28;20438;-79
2021/03/22 02:11:19;;;;;;;15.33;8.90;;;0.70;99.90;;;;;;5095851;28;20630;-79
2021/03/22 02:13:45;;;;;;;18.57;8.47;;;0.80;99.90;;;;;;5077561;28;20402;-80
2021/03/22 02:16:22;;;;;;;20.47;9.73;;;0.70;99.90;;;;;;5101831;28;20442;-79
2021/03/22 02:19:10;;;;;;;18.57;8.47;;;0.70;99.90;;;;;;5102615;28;20413;-79
2021/03/22 02:22:13;;;;;;;18.20;8.40;;;0.70;99.90;;;;;;5103590;28;20383;-79
2021/03/22 02:25:10;;;;;;;15.57;8.43;;;0.70;99.90;;;;;;5089726;28;20481;-79
2021/03/22 02:27:57;;;;;;;18.70;8.47;;;0.70;99.90;;;;;;5094973;28;20466;-79
2021/03/22 02:30:32;;;;;;;14.80;7.93;;;0.80;99.90;;;;;;5090287;28;20436;-80
2021/03/22 02:33:45;;;;;;;14.53;7.63;;;0.80;99.90;;;;;;5080204;28;20416;-80
2021/03/22 02:36:15;;;;;;;26.60;8.53;;;0.70;99.90;;;;;;5098302;28;20433;-79
2021/03/22 02:38:50;;;;;;;18.00;8.80;;;0.80;99.90;;;;;;5079485;28;20456;-79
2021/03/22 02:41:23;;;;;;;26.43;9.73;;;0.70;99.90;;;;;;5098149;28;20423;-80
2021/03/22 02:44:09;;;;;;;20.10;9.27;;;0.70;99.90;;;;;;5080552;28;20762;-79
2021/03/22 02:46:36;;;;;;;19.67;9.53;;;0.70;99.90;;;;;;5098351;28;20564;-79
2021/03/22 02:49:06;;;;;;;19.93;8.33;;;0.80;99.90;;;;;;5097639;28;20413;-79
2021/03/22 02:51:54;;;;;;;24.80;10.53;;;0.70;99.90;;;;;;5080362;28;20502;-79
2021/03/22 02:54:29;;;;;;;23.97;9.50;;;0.70;99.90;;;;;;5079729;28;20464;-79
2021/03/22 02:57:01;;;;;;;22.70;9.50;;;0.70;99.90;;;;;;5097756;28;20480;-79
2021/03/22 02:59:29;;;;;;;18.03;9.17;;;0.80;99.90;;;;;;5097753;28;20393;-79
2021/03/22 03:02:04;;;;;;;20.13;8.60;;;0.60;99.90;;;;;;5080316;28;20414;-79
2021/03/22 03:04:34;;;;;;;18.07;8.23;;;0.70;99.90;;;;;;5079437;28;20440;-79
2021/03/22 03:07:04;;;;;;;22.20;10.03;;;0.70;99.90;;;;;;5097854;28;20508;-79
2021/03/22 03:09:36;;;;;;;19.47;9.23;;;0.70;99.90;;;;;;5097459;28;20409;-79
2021/03/22 03:12:10;;;;;;;23.13;9.53;;;0.70;99.90;;;;;;5079199;28;20446;-79
2021/03/22 03:14:36;;;;;;;25.53;10.57;;;0.70;99.90;;;;;;5097347;28;20452;-79
2021/03/22 03:17:02;;;;;;;18.90;9.97;;;0.70;99.90;;;;;;5078615;28;20426;-79
2021/03/22 03:19:28;;;;;;;20.03;9.60;;;0.70;99.90;;;;;;5097417;28;20203;-79
2021/03/22 03:21:54;;;;;;;18.97;10.20;;;0.70;99.90;;;;;;5097145;28;20406;-80
2021/03/22 03:24:19;;;;;;;23.03;9.57;;;1.90;99.90;;;;;;5097197;28;20190;-79
2021/03/22 03:26:45;;;;;;;19.03;9.40;;;0.70;99.90;;;;;;5081823;28;20291;-79
2021/03/22 03:29:10;;;;;;;15.00;8.90;;;0.70;99.90;;;;;;5082410;28;20207;-79
2021/03/22 03:31:37;;;;;;;19.53;9.07;;;0.70;99.90;;;;;;5100660;28;20633;-79
2021/03/22 03:34:04;;;;;;;20.60;9.80;;;0.70;99.90;;;;;;5082084;28;20214;-79
2021/03/22 03:36:30;;;;;;;19.33;9.33;;;0.70;99.90;;;;;;5100591;28;20901;-79
2021/03/22 03:38:56;;;;;;;19.27;9.73;;;0.60;99.90;;;;;;5082213;28;20406;-79
2021/03/22 03:41:22;;;;;;;16.87;9.77;;;0.70;99.90;;;;;;5082462;28;20421;-79
2021/03/22 03:43:47;;;;;;;21.67;10.90;;;0.70;99.90;;;;;;5082353;28;20534;-79
2021/03/22 03:46:13;;;;;;;24.17;9.30;;;1.40;99.90;;;;;;5099925;28;20202;-79
2021/03/22 03:48:39;;;;;;;21.40;9.53;;;1.50;99.90;;;;;;5100667;28;20179;-79
2021/03/22 03:51:04;;;;;;;21.83;9.10;;;2.60;99.90;;;;;;5100229;28;20563;-79
2021/03/22 03:53:30;;;;;;;22.83;9.53;;;1.70;99.90;;;;;;5100263;28;20168;-79
2021/03/22 03:55:58;;;;;;;18.60;9.43;;;0.70;99.90;;;;;;5099494;28;20605;-79
2021/03/22 03:58:23;;;;;;;23.47;9.80;;;0.70;99.90;;;;;;5096160;28;20176;-79
2021/03/22 04:00:49;;;;;;;22.60;10.10;;;0.70;99.90;;;;;;5100204;28;20846;-80
2021/03/22 04:03:17;;;;;;;24.67;9.70;;;0.60;99.90;;;;;;5110123;28;20176;-80
2021/03/22 04:05:43;;;;;;;20.53;9.30;;;0.60;99.90;;;;;;5110409;28;20184;-80
2021/03/22 04:08:09;;;;;;;23.10;9.70;;;0.60;99.90;;;;;;5109835;28;20426;-80
2021/03/22 04:10:35;;;;;;;21.43;7.87;;;0.70;99.90;;;;;;5091702;28;20263;-80
2021/03/22 04:13:00;;;;;;;17.40;9.20;;;0.90;99.90;;;;;;5091783;28;20187;-80
2021/03/22 04:15:26;;;;;;;24.67;9.70;;;0.70;99.90;;;;;;5102792;28;20217;-79
2021/03/22 04:17:52;;;;;;;27.90;9.73;;;0.70;99.90;;;;;;5099607;28;20196;-80
2021/03/22 04:20:18;;;;;;;21.57;8.87;;;0.70;99.90;;;;;;5108543;28;20176;-80
2021/03/22 04:22:44;;;;;;;24.40;8.67;;;0.70;99.90;;;;;;5089756;28;20599;-80
2021/03/22 04:25:11;;;;;;;22.17;8.40;;;0.70;99.90;;;;;;5107518;28;20418;-80
2021/03/22 04:27:36;;;;;;;23.10;8.93;;;0.70;99.90;;;;;;5107177;28;20192;-79
2021/03/22 04:30:07;;;;;;;19.37;9.77;;;0.70;99.90;;;;;;5106705;28;20410;-80
2021/03/22 04:32:33;;;;;;;27.00;8.93;;;0.70;99.90;;;;;;5107007;28;20262;-80
2021/03/22 04:34:58;;;;;;;17.23;8.77;;;0.70;99.90;;;;;;5107044;28;20481;-80
2021/03/22 04:37:24;;;;;;;20.03;9.23;;;1.70;99.90;;;;;;5105037;28;20298;-79
2021/03/22 04:39:50;;;;;;;23.67;9.20;;;0.70;99.90;;;;;;5087092;28;20172;-80
2021/03/22 04:42:15;;;;;;;21.10;7.53;;;0.70;99.90;;;;;;5106881;28;20255;-80
2021/03/22 04:44:41;;;;;;;21.13;8.93;;;0.70;99.90;;;;;;5107187;28;20176;-80
2021/03/22 04:47:07;;;;;;;19.63;8.60;;;0.70;99.90;;;;;;5107228;28;20200;-80
2021/03/22 04:49:32;;;;;;;21.30;7.90;;;0.70;99.90;;;;;;5106994;28;20176;-80
2021/03/22 04:52:00;;;;;;;19.33;7.83;;;0.60;99.90;;;;;;5089084;28;20180;-80
2021/03/22 04:54:26;;;;;;;23.60;8.03;;;0.70;99.90;;;;;;5106949;28;20252;-80
2021/03/22 04:56:52;;;;;;;18.87;7.77;;;1.30;99.90;;;;;;5088887;28;20441;-80
2021/03/22 04:59:17;;;;;;;17.97;8.13;;;0.70;99.90;;;;;;5106422;28;20176;-80
2021/03/22 05:01:43;;;;;;;21.57;7.67;;;0.70;99.90;;;;;;5105115;28;20235;-80
2021/03/22 05:04:09;;;;;;;21.70;8.30;;;0.70;99.90;;;;;;5085373;28;20172;-80
2021/03/22 05:06:34;;;;;;;37.00;8.80;;;0.70;99.90;;;;;;5085450;28;20215;-79
2021/03/22 05:09:00;;;;;;;28.07;12.13;;;0.70;99.90;;;;;;5084728;28;20536;-80
2021/03/22 05:11:26;;;;;;;25.40;9.60;;;0.70;99.90;;;;;;5104058;28;20179;-80
2021/03/22 05:13:52;;;;;;;23.10;8.10;;;0.70;99.90;;;;;;5085275;28;20229;-80
2021/03/22 05:16:18;;;;;;;22.57;9.03;;;1.00;99.90;;;;;;5085491;28;20438;-80
2021/03/22 05:18:44;;;;;;;26.27;9.40;;;0.60;99.90;;;;;;5101742;28;20191;-80
2021/03/22 05:21:10;;;;;;;20.57;8.60;;;0.70;99.90;;;;;;5097343;28;20880;-80
2021/03/22 05:23:39;;;;;;;16.63;7.07;;;0.60;99.90;;;;;;5101649;28;20228;-80
2021/03/22 05:26:06;;;;;;;16.30;6.67;;;0.60;99.90;;;;;;5103875;28;20740;-80
2021/03/22 05:28:35;;;;;;;20.43;7.87;;;0.80;99.90;;;;;;5108809;28;20412;-80
2021/03/22 05:31:03;;;;;;;20.47;6.83;;;0.70;99.90;;;;;;5114102;28;20444;-80
2021/03/22 05:33:29;;;;;;;17.70;6.60;;;0.70;99.90;;;;;;5097038;28;20488;-80
2021/03/22 05:35:57;;;;;;;19.80;6.87;;;0.60;99.90;;;;;;5086166;28;20462;-80
2021/03/22 05:38:25;;;;;;;33.90;7.97;;;0.60;99.90;;;;;;5081527;28;20411;-80
2021/03/22 05:40:58;;;;;;;21.13;6.47;;;0.70;99.90;;;;;;5099452;28;20417;-80
2021/03/22 05:43:42;;;;;;;23.07;6.47;;;0.60;99.90;;;;;;5101819;28;20912;-80
2021/03/22 05:46:22;;;;;;;19.27;7.60;;;0.60;99.90;;;;;;5083456;28;20438;-80
2021/03/22 05:49:06;;;;;;;20.33;5.87;;;0.60;99.90;;;;;;5082378;28;20497;-80
2021/03/22 05:51:38;;;;;;;24.97;8.17;;;0.60;99.90;;;;;;5083749;28;20406;-80
2021/03/22 05:54:04;;;;;;;18.30;6.70;;;;;;;;;;5083217;28;20422;-80
2021/03/22 05:56:39;;;;;;;16.90;6.40;;;0.70;99.90;;;;;;5102775;28;20484;-80
2021/03/22 05:59:26;;;;;;;20.00;6.90;;;0.70;99.90;;;;;;5101827;28;20239;-80
2021/03/22 06:02:02;;;;;;;15.47;5.83;;;0.70;99.90;;;;;;5083207;28;20469;-80
2021/03/22 06:04:33;;;;;;;13.30;5.50;;;0.70;99.90;;;;;;5082191;28;20491;-80
2021/03/22 06:06:58;;;;;;;25.40;7.23;;;0.70;99.90;;;;;;5098925;28;20956;-80
2021/03/22 06:09:43;;;;;;;24.40;6.80;;;0.70;99.90;;;;;;5080063;28;20452;-80
2021/03/22 06:12:27;;;;;;;22.23;6.83;;;0.70;99.90;;;;;;5079917;28;20630;-80
2021/03/22 06:15:21;;;;;;;20.87;6.40;;;0.70;99.90;;;;;;5077704;28;20490;-81
2021/03/22 06:17:52;;;;;;;17.60;5.80;;;0.80;99.90;;;;;;5077235;28;20444;-81
2021/03/22 06:20:27;;;;;;;25.77;7.47;;;0.80;99.90;;;;;;5081428;28;20480;-80
2021/03/22 06:23:07;;;;;;;25.83;6.90;;;0.80;99.90;;;;;;5082312;28;20847;-80
2021/03/22 06:25:34;;;;;;;15.37;6.10;;;0.80;99.90;;;;;;5099393;28;20406;-80
2021/03/22 06:28:23;;;;;;;20.50;6.97;;;0.80;99.90;;;;;;5082456;28;20418;-80
2021/03/22 06:31:10;;;;;;;26.20;6.97;;;0.90;99.90;;;;;;5082105;28;20802;-80
2021/03/22 06:33:47;;;;;;;22.13;6.87;;;1.00;99.90;;;;;;5080883;28;20421;-80
2021/03/22 06:36:19;;;;;;;15.47;5.80;;;1.00;99.90;;;;;;5080252;28;20462;-80
2021/03/22 06:38:50;;;;;;;19.27;6.03;;;1.00;99.90;;;;;;5099421;28;20394;-80
2021/03/22 06:41:38;;;;;;;24.10;7.80;;;1.10;99.90;;;;;;5081132;28;20402;-80
2021/03/22 06:44:09;;;;;;;24.93;7.17;;;1.10;99.90;;;;;;5080501;28;20402;-80
2021/03/22 06:46:56;;;;;;;28.07;7.33;;;1.10;99.90;;;;;;5080862;28;20426;-80
2021/03/22 06:49:30;;;;;;;20.33;7.63;;;1.20;99.90;;;;;;5080797;28;20410;-80
2021/03/22 06:52:00;;;;;;;27.00;8.43;;;1.20;99.90;;;;;;5081284;28;20398;-80
2021/03/22 06:54:36;;;;;;;21.30;7.37;;;1.20;99.90;;;;;;5099399;28;20804;-80
2021/03/22 06:57:08;;;;;;;20.27;6.53;;;1.30;99.90;;;;;;5099391;28;20503;-80
2021/03/22 06:59:34;;;;;;;25.57;7.10;;;1.30;99.90;;;;;;5099143;28;20742;-80
2021/03/22 07:02:17;;;;;;;19.33;6.47;;;1.30;99.90;;;;;;5084173;28;20415;-80
2021/03/22 07:04:43;;;;;;;17.63;5.97;;;1.30;99.90;;;;;;5085095;28;20760;-81
2021/03/22 07:07:21;;;;;;;16.80;5.73;;;1.40;99.90;;;;;;5102648;28;20485;-80
2021/03/22 07:10:00;;;;;;;18.90;6.13;;;1.40;99.90;;;;;;5102565;28;20170;-80
2021/03/22 07:12:26;;;;;;;23.60;5.93;;;1.30;99.90;;;;;;5084833;28;20502;-81
2021/03/22 07:14:52;;;;;;;21.53;5.73;;;1.20;99.90;;;;;;5103357;28;20497;-81
2021/03/22 07:17:22;;;;;;;19.37;6.10;;;2.20;99.90;;;;;;5084963;28;20204;-81
2021/03/22 07:20:16;;;;;;;23.93;7.70;;;2.40;99.90;;;;;;5103230;28;20430;-81
2021/03/22 07:22:42;;;;;;;16.97;5.83;;;1.20;99.90;;;;;;5084526;28;20973;-81
2021/03/22 07:25:38;;;;;;;21.67;6.00;;;1.20;99.90;;;;;;5102566;28;20444;-81
2021/03/22 07:28:16;;;;;;;25.57;6.07;;;1.20;99.90;;;;;;5102779;28;20164;-80
2021/03/22 07:30:52;;;;;;;19.83;6.43;;;1.30;99.90;;;;;;5084060;28;20410;-81
2021/03/22 07:33:26;;;;;;;16.07;5.60;;;1.40;99.90;;;;;;5102958;28;20394;-81
2021/03/22 07:36:19;;;;;;;19.80;6.47;;;1.50;99.90;;;;;;5084744;28;20494;-80
2021/03/22 07:39:09;;;;;;;14.87;4.97;;;1.60;99.90;;;;;;5102392;28;20390;-81
2021/03/22 07:41:46;;;;;;;15.50;4.90;;;1.60;99.90;;;;;;5084459;28;20742;-81
2021/03/22 07:44:37;;;;;;;20.13;6.40;;;1.80;99.90;;;;;;5084665;28;20406;-81
2021/03/22 07:47:07;;;;;;;19.43;5.50;;;1.80;99.90;;;;;;5102708;28;20449;-81
2021/03/22 07:49:46;;;;;;;24.27;5.40;;;1.70;99.90;;;;;;5102704;28;20802;-81
2021/03/22 07:52:29;;;;;;;21.57;5.33;;;1.80;99.90;;;;;;5084643;28;20464;-81
2021/03/22 07:55:08;;;;;;;18.37;4.90;;;1.90;99.90;;;;;;5102743;28;20862;-81
2021/03/22 07:57:55;;;;;;;20.73;4.80;;;1.90;99.90;;;;;;5103718;28;20426;-81
2021/03/22 08:00:42;;;;;;;24.93;6.03;;;2.00;99.90;;;;;;5104090;28;20406;-81
2021/03/22 08:03:50;;;;;;;18.53;5.17;;;2.10;99.90;;;;;;5085632;28;20406;-82
2021/03/22 08:06:52;;;;;;;15.70;5.13;;;2.20;99.90;;;;;;5087966;28;20462;-81
2021/03/22 08:09:40;;;;;;;16.67;5.37;;;2.40;99.90;;;;;;5103940;28;20824;-82
2021/03/22 08:12:27;;;;;;;30.07;6.30;;;2.60;99.90;;;;;;5085050;28;20414;-81
2021/03/22 08:15:01;;;;;;;22.37;5.03;;;2.70;99.90;;;;;;5103011;28;20438;-81
2021/03/22 08:17:39;;;;;;;20.50;5.83;;;2.90;99.90;;;;;;5102680;28;20512;-81
2021/03/22 08:20:34;;;;;;;17.07;5.70;;;2.90;99.90;;;;;;5085625;28;20809;-81
2021/03/22 08:23:06;;;;;;;17.47;5.00;;;2.90;99.90;;;;;;5084601;28;20497;-81
2021/03/22 08:25:35;;;;;;;24.07;4.73;;;2.90;99.90;;;;;;5098126;28;20406;-82
2021/03/22 08:28:29;;;;;;;14.60;4.90;;;3.30;99.90;;;;;;5080251;28;20418;-82
2021/03/22 08:31:20;;;;;;;28.47;5.73;;;3.40;99.90;;;;;;5079890;28;20759;-81
2021/03/22 08:34:13;;;;;;;19.53;4.70;;;3.30;99.90;;;;;;5108393;28;20405;-82
2021/03/22 08:36:51;;;;;;;25.20;6.20;;;3.10;99.90;;;;;;5104367;28;20203;-81
2021/03/22 08:39:23;;;;;;;19.83;4.87;;;2.90;99.90;;;;;;5104383;28;20448;-81
2021/03/22 08:41:48;;;;;;;17.07;4.73;;;2.70;99.90;;;;;;5085901;28;20426;-82
2021/03/22 08:44:34;;;;;;;20.63;5.50;;;2.50;99.90;;;;;;5101643;28;20414;-82
2021/03/22 08:47:04;;;;;;;20.47;5.87;;;2.40;99.90;;;;;;5082807;28;20227;-82
2021/03/22 08:49:39;;;;;;;17.30;5.30;;;2.30;99.90;;;;;;5101740;28;20414;-82
2021/03/22 08:52:05;;;;;;;21.40;5.93;;;2.30;99.90;;;;;;5102173;28;20390;-82
2021/03/22 08:54:35;;;;;;;18.40;5.77;;;2.30;99.90;;;;;;5101523;28;20500;-82
2021/03/22 08:57:08;;;;;;;18.50;6.27;;;2.30;99.90;;;;;;5101345;28;20927;-82
2021/03/22 08:59:34;;;;;;;16.73;4.83;;;2.40;99.90;;;;;;5083046;28;20421;-81
2021/03/22 09:02:22;;;;;;;17.30;5.13;;;2.30;99.90;;;;;;5102250;28;20418;-82
2021/03/22 09:04:49;;;;;;;25.43;7.30;;;2.10;99.90;;;;;;5083028;28;20417;-81
2021/03/22 09:07:15;;;;;;;20.73;6.53;;;2.20;99.90;;;;;;5083245;28;20476;-82
2021/03/22 09:09:44;;;;;;;23.20;7.03;;;2.10;99.90;;;;;;5101669;28;20406;-82
2021/03/22 09:12:45;;;;;;;26.63;6.97;;;2.10;99.90;;;;;;5101319;28;20176;-81
2021/03/22 09:15:33;;;;;;;17.90;5.17;;;2.20;99.90;;;;;;5082924;28;20515;-81
2021/03/22 09:18:02;;;;;;;20.53;5.37;;;2.20;99.90;;;;;;5083956;28;20730;-81
2021/03/22 09:20:49;;;;;;;17.20;5.27;;;2.20;99.90;;;;;;5101268;28;20407;-82
2021/03/22 09:23:30;;;;;;;28.73;6.27;;;2.30;99.90;;;;;;5082608;28;20410;-82
2021/03/22 09:25:59;;;;;;;15.83;5.67;;;2.30;99.90;;;;;;5106041;28;20483;-82
2021/03/22 09:28:25;;;;;;;22.27;5.90;;;2.50;99.90;;;;;;5107521;28;20439;-82
2021/03/22 09:31:01;;;;;;;21.37;7.03;;;2.80;99.90;;;;;;5088782;28;20910;-82
2021/03/22 09:34:04;;;;;;;21.93;6.77;;;3.00;99.90;;;;;;5089330;28;20191;-82
2021/03/22 09:36:39;;;;;;;23.53;6.97;;;3.00;99.90;;;;;;5107389;28;20434;-82
2021/03/22 09:39:14;;;;;;;17.00;5.80;;;2.80;99.90;;;;;;5088816;28;20409;-82
2021/03/22 09:41:52;;;;;;;18.97;5.50;;;2.70;99.90;;;;;;5105131;28;20414;-84
2021/03/22 09:44:20;;;;;;;16.00;5.40;;;2.40;99.90;;;;;;5089016;28;20410;-82
2021/03/22 09:47:08;;;;;;;19.10;5.03;;;2.10;99.90;;;;;;5085323;28;20959;-83
2021/03/22 09:50:05;;;;;;;14.90;4.83;;;2.10;99.90;;;;;;5104823;28;20480;-81
2021/03/22 09:52:40;;;;;;;16.33;5.80;;;2.10;99.90;;;;;;5085516;28;20489;-81
2021/03/22 09:55:27;;;;;;;22.67;5.30;;;2.20;99.90;;;;;;5086160;28;20441;-81
2021/03/22 09:57:58;;;;;;;17.20;4.93;;;2.30;99.90;;;;;;5103186;28;20188;-81
2021/03/22 10:00:32;;;;;;;19.60;5.20;;;2.40;99.90;;;;;;5085465;28;20816;-81
2021/03/22 10:03:18;;;;;;;15.77;4.50;;;2.40;99.90;;;;;;5103614;28;20398;-81
2021/03/22 10:05:47;;;;;;;21.53;6.53;;;2.30;99.90;;;;;;5085025;28;20414;-80
2021/03/22 10:08:22;;;;;;;13.87;5.90;;;2.30;99.90;;;;;;5084629;28;20437;-81
2021/03/22 10:10:55;;;;;;;21.40;8.43;;;2.50;99.90;;;;;;5084694;28;20596;-81
2021/03/22 10:13:31;;;;;;;13.53;5.03;;;2.50;99.90;;;;;;5102321;28;20425;-81
2021/03/22 10:16:17;;;;;;;18.70;5.07;;;2.60;99.90;;;;;;5101230;28;20462;-81
2021/03/22 10:18:48;;;;;;;14.27;5.93;;;2.70;99.90;;;;;;5101232;28;20478;-81
2021/03/22 10:21:17;;;;;;;19.57;9.60;;;2.60;99.90;;;;;;5082772;28;20453;-81
2021/03/22 10:23:54;;;;;;;14.93;6.77;;;2.40;99.90;;;;;;5099951;28;20402;-80
2021/03/22 10:26:38;;;;;;;14.73;5.27;;;2.40;99.90;;;;;;5081318;28;20578;-81
2021/03/22 10:29:19;;;;;;;14.53;5.83;;;2.40;99.90;;;;;;5082666;28;20410;-80
2021/03/22 10:31:49;;;;;;;18.00;7.13;;;2.40;99.90;;;;;;5104201;28;20410;-81
2021/03/22 10:34:40;;;;;;;13.70;6.00;;;2.30;99.90;;;;;;5103781;28;20488;-80
2021/03/22 10:37:26;;;;;;;45.17;19.67;;;2.50;99.90;;;;;;5101849;28;20437;-81
2021/03/22 10:39:58;;;;;;;21.40;12.57;;;2.60;99.90;;;;;;5086406;28;20406;-81
2021/03/22 10:42:30;;;;;;;19.10;7.17;;;2.80;99.90;;;;;;5105082;28;20406;-81
2021/03/22 10:44:57;;;;;;;23.93;8.90;;;3.00;99.90;;;;;;5104748;28;20438;-81
2021/03/22 10:47:28;;;;;;;25.83;7.80;;;3.20;99.90;;;;;;5104246;28;20441;-82
2021/03/22 10:50:06;;;;;;;18.83;8.10;;;3.40;99.90;;;;;;5104057;28;20429;-80
2021/03/22 10:52:32;;;;;;;14.63;5.60;;;3.60;99.90;;;;;;5099794;28;20397;-80
2021/03/22 10:54:58;;;;;;;17.73;6.70;;;3.80;99.90;;;;;;5099742;28;20438;-80
2021/03/22 10:57:26;;;;;;;15.37;7.93;;;3.80;99.90;;;;;;5081414;28;20200;-80
2021/03/22 10:59:57;;;;;;;15.30;5.63;;;3.80;99.90;;;;;;5099898;28;20402;-80
2021/03/22 11:02:25;;;;;;;9.67;3.73;;;3.60;99.90;;;;;;5099873;28;20378;-80
2021/03/22 11:04:52;;;;;;;12.63;4.60;;;3.40;99.90;;;;;;5098288;28;20203;-80
2021/03/22 11:07:28;;;;;;;11.50;4.20;;;3.30;99.90;;;;;;5081155;28;20475;-80
2021/03/22 11:10:13;;;;;;;13.57;4.00;;;3.40;99.90;;;;;;5100065;28;20163;-80
2021/03/22 11:12:42;;;;;;;10.27;4.27;;;3.20;99.90;;;;;;5082014;28;20588;-80
2021/03/22 11:15:19;;;;;;;15.50;4.73;;;2.90;99.90;;;;;;5100406;28;20188;-80
2021/03/22 11:17:46;;;;;;;19.07;5.07;;;2.70;99.90;;;;;;5082239;28;20453;-80
2021/03/22 11:20:15;;;;;;;24.03;4.67;;;2.60;99.90;;;;;;5082278;28;20421;-80
2021/03/22 11:22:42;;;;;;;15.03;4.83;;;2.50;99.90;;;;;;5082800;28;20172;-80
2021/03/22 11:25:27;;;;;;;20.17;5.73;;;2.40;99.90;;;;;;5101650;28;20406;-80
2021/03/22 11:28:02;;;;;;;20.13;6.20;;;2.40;99.90;;;;;;5100975;28;20418;-80
2021/03/22 11:30:29;;;;;;;23.83;5.50;;;2.30;99.90;;;;;;5101419;28;20406;-80
2021/03/22 11:32:55;;;;;;;15.00;4.07;;;2.30;99.90;;;;;;5100581;28;20398;-79
2021/03/22 11:35:23;;;;;;;20.40;6.43;;;2.30;99.90;;;;;;5082098;28;20538;-79
2021/03/22 11:37:54;;;;;;;17.70;5.53;;;2.40;99.90;;;;;;5101465;28;20191;-80
2021/03/22 11:40:27;;;;;;;13.00;5.33;;;2.50;99.90;;;;;;5082042;28;20421;-79
2021/03/22 11:42:55;;;;;;;15.70;5.70;;;2.50;99.90;;;;;;5080514;28;20198;-79
2021/03/22 11:45:37;;;;;;;15.93;5.50;;;2.60;99.90;;;;;;5102758;28;20406;-79
2021/03/22 11:48:10;;;;;;;13.90;4.60;;;2.50;99.90;;;;;;5113221;28;20416;-79
2021/03/22 11:50:41;;;;;;;11.27;4.03;;;2.50;99.90;;;;;;5115588;28;20485;-79
2021/03/22 11:53:20;;;;;;;17.20;4.57;;;2.60;99.90;;;;;;5112673;28;20409;-80
2021/03/22 11:55:56;;;;;;;21.17;7.37;;;2.70;99.90;;;;;;5102021;28;20206;-79
2021/03/22 11:58:33;;;;;;;16.07;4.63;;;2.70;99.90;;;;;;5102407;28;20398;-79
2021/03/22 12:01:11;;;;;;;13.00;4.43;;;2.80;99.90;;;;;;5102110;28;20168;-80
2021/03/22 12:03:37;;;;;;;17.37;6.60;;;2.90;99.90;;;;;;5084782;28;20424;-80
2021/03/22 12:06:16;;;;;;;14.20;4.03;;;3.10;99.90;;;;;;5084092;28;20207;-80
2021/03/22 12:08:45;;;;;;;10.00;4.00;;;3.10;99.90;;;;;;5084311;28;20437;-80
2021/03/22 12:11:26;;;;;;;9.83;3.67;;;3.10;99.90;;;;;;5084265;28;20966;-80
2021/03/22 12:13:58;;;;;;;19.43;4.83;;;3.20;99.90;;;;;;5101585;28;20402;-80
2021/03/22 12:16:32;;;;;;;10.20;3.57;;;3.40;99.90;;;;;;5101692;28;20545;-80
2021/03/22 12:19:05;;;;;;;21.70;4.07;;;3.50;99.90;;;;;;5082223;28;20179;-80
2021/03/22 12:21:31;;;;;;;9.60;3.90;;;3.60;99.90;;;;;;5101439;28;20398;-80
2021/03/22 12:23:58;;;;;;;16.33;4.60;;;3.70;99.90;;;;;;5081485;28;20414;-79
2021/03/22 12:26:24;;;;;;;13.40;3.60;;;3.80;99.90;;;;;;5082999;28;20199;-80
2021/03/22 12:28:57;;;;;;;11.43;3.67;;;3.80;99.90;;;;;;5099847;28;20421;-80
2021/03/22 12:31:28;;;;;;;9.10;3.67;;;3.70;99.90;;;;;;5081820;28;20168;-80
2021/03/22 12:34:00;;;;;;;15.03;4.03;;;3.70;99.90;;;;;;5098875;28;20424;-80
2021/03/22 12:36:27;;;;;;;10.10;3.60;;;3.40;99.90;;;;;;5104752;28;20511;-79
2021/03/22 12:38:53;;;;;;;11.90;3.67;;;3.30;99.90;;;;;;5098811;28;20179;-79
2021/03/22 12:41:29;;;;;;;10.17;3.30;;;3.00;99.90;;;;;;5078689;28;20426;-80
2021/03/22 12:43:57;;;;;;;11.47;3.27;;;2.80;99.90;;;;;;5062712;28;20468;-80
2021/03/22 12:46:24;;;;;;;9.87;4.07;;;2.80;99.90;;;;;;5078303;28;20442;-79
2021/03/22 12:48:50;;;;;;;17.20;4.73;;;2.60;99.90;;;;;;5100293;28;20414;-79
2021/03/22 12:51:16;;;;;;;11.03;3.83;;;2.50;99.90;;;;;;5082196;28;20187;-79
2021/03/22 12:53:42;;;;;;;12.17;3.53;;;2.30;99.90;;;;;;5081733;28;20180;-79
2021/03/22 12:56:14;;;;;;;10.13;3.90;;;2.40;99.90;;;;;;5100091;28;20540;-79
2021/03/22 12:58:40;;;;;;;9.30;3.67;;;2.50;99.90;;;;;;5098976;28;20916;-80
2021/03/22 13:01:06;;;;;;;13.20;5.17;;;2.50;99.90;;;;;;5098327;28;20414;-79
2021/03/22 13:03:32;;;;;;;15.23;4.40;;;2.50;99.90;;;;;;5099917;28;20410;-79
2021/03/22 13:05:58;;;;;;;11.77;5.70;;;2.50;99.90;;;;;;5099560;28;20460;-79
2021/03/22 13:08:27;;;;;;;11.83;3.20;;;2.50;99.90;;;;;;5079072;28;20210;-80
2021/03/22 13:10:58;;;;;;;8.40;3.47;;;2.30;99.90;;;;;;5089215;28;20194;-80
2021/03/22 13:13:24;;;;;;;11.73;4.33;;;2.40;99.90;;;;;;5055896;28;20429;-79
2021/03/22 13:15:54;;;;;;;11.17;3.80;;;2.40;99.90;;;;;;5053062;28;20883;-79
2021/03/22 13:18:30;;;;;;;9.23;4.23;;;2.50;99.90;;;;;;5040127;28;20192;-80